Terminal Aerodrome Forecast
Issued by NWS

Home | Current Version | Previous Version | Text Only | Print | Product List | Glossary On
Versions: 1 2 3 4 5 6 7 8 9 10 11 12 13 14 15 16 17 18 19 20 21 22 23 24 25 26 27 28 29 30 31 32 33 34
000
FTUS41 KBOX 042333
TAFBED
TAF
KBED 042333Z 0500/0524 34005KT P6SM SCT250
     FM050200 00000KT P6SM SCT250
     FM051000 00000KT P6SM OVC080
     FM051200 VRB03KT 3SM -SN OVC025
     FM051500 10003KT 3SM -SN OVC010
     FM051900 00000KT P6SM VCSH OVC010
     FM052200 VRB03KT P6SM BKN060 BKN250=

USA.gov is the U.S. government's official web portal to all federal, state and local government web resources and services.